Time;durP1;ratioP1;P1;durP2;ratioP2;P2;SDS_P1;SDS_P2;PMS_P1;PMS_P2;Temp;Humidity;BMP_temperature;BMP_pressure;BME280_temperature;BME280_humidity;BME280_pressure;Samples;Min_cycle;Max_cycle;Signal;HPM_P1;HPM_P2
2021/07/14 00:00:27;;;;;;;17.92;16.33;;;;;;;19.24;64.42;93458.53;5069170;28;20082;-54
2021/07/14 00:02:54;;;;;;;18.15;16.55;;;;;;;19.19;64.30;93461.69;5069262;28;20072;-53
2021/07/14 00:05:21;;;;;;;17.85;16.27;;;;;;;19.13;64.87;93464.84;5069397;28;20461;-52
2021/07/14 00:07:47;;;;;;;16.65;15.35;;;;;;;19.10;64.28;93466.03;5069261;28;20108;-54
2021/07/14 00:10:16;;;;;;;17.77;16.10;;;;;;;19.03;64.48;93469.06;5068919;28;20060;-53
2021/07/14 00:24:00;;;;;;;18.67;17.13;;;;;;;18.83;65.55;93466.47;5089540;28;20104;-48
2021/07/14 00:26:26;;;;;;;17.90;16.33;;;;;;;18.62;66.12;93446.19;5089546;28;20054;-49
2021/07/14 00:28:51;;;;;;;18.33;16.80;;;;;;;18.75;66.14;93465.94;5089153;28;20036;-50
2021/07/14 00:31:18;;;;;;;20.80;18.58;;;;;;;18.68;66.59;93460.56;5089560;28;20032;-55
2021/07/14 00:33:43;;;;;;;20.80;19.08;;;;;;;18.61;66.97;93458.69;5089241;28;20103;-55
2021/07/14 00:36:10;;;;;;;20.05;18.25;;;;;;;18.66;66.72;93463.97;5089228;28;20032;-55
2021/07/14 00:38:35;;;;;;;24.13;21.25;;;;;;;18.64;67.09;93454.72;5089434;28;20056;-52
2021/07/14 00:41:02;;;;;;;22.55;20.60;;;;;;;18.61;67.35;93453.84;5088839;28;20113;-53
2021/07/14 00:43:27;;;;;;;22.85;20.95;;;;;;;18.58;67.12;93463.44;5089698;28;20040;-52
2021/07/14 00:45:53;;;;;;;22.75;20.77;;;;;;;18.62;67.12;93458.13;5080776;28;20020;-52
2021/07/14 00:48:26;;;;;;;23.60;21.25;;;;;;;18.60;67.31;93468.44;5069341;28;20028;-54
2021/07/14 00:50:52;;;;;;;21.15;19.15;;;;;;;18.64;66.72;93460.31;5069177;28;20062;-54
2021/07/14 00:53:19;;;;;;;18.77;17.17;;;;;;;18.65;66.37;93464.56;5069133;28;20052;-53
2021/07/14 00:55:44;;;;;;;29.52;18.40;;;;;;;18.62;66.63;93460.91;5069047;28;20025;-49
2021/07/14 00:58:10;;;;;;;19.27;17.42;;;;;;;18.59;66.15;93456.50;5070592;28;20409;-53
2021/07/14 01:00:35;;;;;;;17.38;15.88;;;;;;;18.59;65.64;93452.97;5072703;28;20502;-50
2021/07/14 01:03:00;;;;;;;17.05;15.65;;;;;;;18.42;65.70;93453.97;5072566;28;20044;-52
2021/07/14 01:05:35;;;;;;;17.20;15.77;;;;;;;18.37;66.12;93457.84;5072199;28;20107;-52
2021/07/14 01:08:13;;;;;;;19.17;17.58;;;;;;;18.31;66.47;93442.72;5070990;28;20552;-54
2021/07/14 01:10:43;;;;;;;18.67;16.97;;;;;;;18.29;66.82;93456.56;5070790;28;20060;-54
2021/07/14 01:13:24;;;;;;;19.52;17.92;;;;;;;18.27;67.01;93454.38;5071946;28;21006;-54
2021/07/14 01:16:04;;;;;;;18.88;17.02;;;;;;;18.28;66.72;93457.91;5072058;28;20059;-56
2021/07/14 01:18:51;;;;;;;20.48;17.33;;;;;;;18.22;66.98;93465.88;5070918;28;20086;-52
2021/07/14 01:21:20;;;;;;;19.38;17.67;;;;;;;18.21;67.06;93464.44;5071954;28;20028;-48
2021/07/14 03:22:29;;;;;;;25.85;19.58;;;;;;;18.16;64.22;93510.94;5099111;27;20925;-54
2021/07/14 03:24:55;;;;;;;29.33;20.88;;;;;;;18.01;64.67;93514.84;5089242;28;20524;-51
2021/07/14 03:27:21;;;;;;;21.08;19.23;;;;;;;17.98;65.33;93518.09;5087788;28;20023;-53
2021/07/14 03:29:48;;;;;;;21.13;19.02;;;;;;;17.83;65.16;93513.59;5089728;28;20047;-54
2021/07/14 03:32:13;;;;;;;18.77;16.98;;;;;;;17.75;65.27;93521.44;5089253;28;20024;-55
2021/07/14 03:34:39;;;;;;;17.75;15.85;;;;;;;17.61;65.50;93514.13;5089633;28;20115;-51
2021/07/14 03:37:06;;;;;;;18.98;17.15;;;;;;;17.54;65.78;93517.84;5089902;28;20031;-52
2021/07/14 03:39:40;;;;;;;20.25;18.13;;;;;;;17.48;66.07;93511.81;5089511;28;20496;-51
2021/07/14 03:42:07;;;;;;;19.30;17.27;;;;;;;17.49;66.26;93525.19;5088424;28;20110;-55
2021/07/14 03:44:34;;;;;;;20.48;18.40;;;;;;;17.32;67.14;93514.22;5091335;28;20478;-54
2021/07/14 03:47:00;;;;;;;20.20;18.27;;;;;;;17.32;66.73;93523.31;5089951;28;20493;-51
2021/07/14 03:49:26;;;;;;;19.02;17.38;;;;;;;17.38;66.76;93537.69;5089885;28;20424;-54
2021/07/14 03:51:52;;;;;;;18.83;17.02;;;;;;;17.34;67.42;93528.31;5088512;28;20493;-49
2021/07/14 03:54:19;;;;;;;19.05;17.35;;;;;;;17.40;67.09;93528.72;5089884;28;20049;-55
2021/07/14 03:56:44;;;;;;;20.25;18.60;;;;;;;17.36;67.32;93531.97;5091147;28;20107;-55
2021/07/14 03:59:11;;;;;;;19.70;18.02;;;;;;;17.30;67.67;93533.59;5089693;28;20169;-54
2021/07/14 04:01:37;;;;;;;22.23;20.20;;;;;;;17.28;68.45;93530.69;5090168;28;20020;-56
2021/07/14 04:04:04;;;;;;;22.05;19.88;;;;;;;17.32;68.54;93533.75;5089642;28;20674;-57
2021/07/14 04:06:34;;;;;;;21.65;19.75;;;;;;;17.09;69.01;93513.94;5089641;28;20020;-57
2021/07/14 04:09:22;;;;;;;22.98;20.83;;;;;;;17.32;69.41;93533.75;5090736;28;20031;-57
2021/07/14 04:11:53;;;;;;;23.23;21.23;;;;;;;17.28;69.25;93531.38;5090936;28;20023;-56
2021/07/14 04:14:19;;;;;;;22.70;20.65;;;;;;;17.33;69.23;93529.63;5090904;28;20028;-56
2021/07/14 04:16:44;;;;;;;24.67;22.33;;;;;;;17.41;68.97;93533.72;5090581;28;20066;-56
2021/07/14 04:19:10;;;;;;;24.70;22.40;;;;;;;17.38;69.46;93534.16;5090562;28;20023;-54
2021/07/14 04:21:37;;;;;;;25.10;23.00;;;;;;;17.45;69.71;93536.78;5090338;28;20116;-55
2021/07/14 04:24:03;;;;;;;26.67;24.23;;;;;;;17.47;69.91;93530.63;5090410;28;20032;-55
2021/07/14 04:26:28;;;;;;;25.52;22.95;;;;;;;17.57;69.24;93536.94;5090720;28;20529;-55
2021/07/14 04:28:54;;;;;;;23.08;20.92;;;;;;;17.54;69.08;93524.16;5090712;28;20016;-55
2021/07/14 04:31:20;;;;;;;26.30;23.75;;;;;;;17.63;69.72;93540.13;5094513;28;20084;-55
2021/07/14 04:33:45;;;;;;;26.58;23.95;;;;;;;17.69;69.95;93545.41;5110608;28;20675;-56
2021/07/14 04:36:11;;;;;;;25.23;22.80;;;;;;;17.74;70.07;93545.09;5110882;28;20031;-52
2021/07/14 04:38:37;;;;;;;26.35;24.05;;;;;;;17.82;69.81;93542.84;5110824;28;20022;-55
2021/07/14 04:41:05;;;;;;;27.33;24.67;;;;;;;17.65;70.74;93528.41;5110517;28;20444;-55
2021/07/14 04:43:31;;;;;;;28.38;25.75;;;;;;;17.92;70.22;93540.03;5110517;28;20015;-55
2021/07/14 04:45:58;;;;;;;30.40;27.17;;;;;;;17.99;70.50;93544.72;5110542;28;20061;-54
2021/07/14 04:48:26;;;;;;;29.98;26.88;;;;;;;18.05;70.25;93548.66;5110314;28;20028;-54
2021/07/14 04:50:52;;;;;;;30.87;27.57;;;;;;;18.10;70.71;93550.38;5110259;28;20020;-55
2021/07/14 04:53:18;;;;;;;34.13;25.30;;;;;;;18.16;71.07;93542.41;5110391;28;20440;-56
2021/07/14 04:55:43;;;;;;;29.58;26.55;;;;;;;18.23;71.38;93540.03;5110306;28;20031;-55
2021/07/14 04:58:09;;;;;;;30.42;27.52;;;;;;;18.19;71.51;93541.22;5109788;27;20591;-57
2021/07/14 05:00:35;;;;;;;29.58;26.58;;;;;;;18.34;71.74;93542.16;5110084;28;20028;-59
2021/07/14 05:03:00;;;;;;;33.90;30.40;;;;;;;18.43;71.61;93544.88;5110211;28;20027;-59
2021/07/14 05:05:26;;;;;;;35.33;31.40;;;;;;;18.40;71.78;93534.91;5110260;28;20028;-60
2021/07/14 05:07:51;;;;;;;34.20;30.50;;;;;;;18.61;71.70;93545.38;5110040;28;20506;-54
2021/07/14 05:10:20;;;;;;;34.35;30.67;;;;;;;18.68;71.95;93553.59;5109932;28;20016;-55
2021/07/14 05:12:49;;;;;;;30.35;27.30;;;;;;;18.79;71.79;93557.78;5110268;28;20027;-54
2021/07/14 05:15:14;;;;;;;28.85;25.98;;;;;;;18.85;71.49;93561.72;5109991;28;20658;-51
2021/07/14 05:17:39;;;;;;;28.73;25.77;;;;;;;18.93;71.10;93558.69;5109883;28;20143;-55
2021/07/14 05:20:06;;;;;;;39.20;24.92;;;;;;;18.98;71.05;93557.63;5110167;28;20026;-54
2021/07/14 05:22:32;;;;;;;28.05;23.42;;;;;;;19.10;71.25;93560.47;5109627;28;20101;-54
2021/07/14 05:24:58;;;;;;;24.75;22.42;;;;;;;19.12;70.89;93561.34;5109764;28;20096;-52
2021/07/14 05:27:23;;;;;;;24.95;22.35;;;;;;;19.26;71.08;93559.44;5110096;28;20019;-54
2021/07/14 05:29:49;;;;;;;23.73;21.63;;;;;;;19.37;70.75;93553.19;5109678;28;20034;-55
2021/07/14 05:32:14;;;;;;;27.67;20.83;;;;;;;19.45;70.42;93553.69;5097566;28;20024;-54
2021/07/14 05:34:40;;;;;;;26.00;23.27;;;;;;;19.52;71.01;93558.31;5089549;28;20051;-54
2021/07/14 05:37:05;;;;;;;21.95;19.65;;;;;;;19.59;70.19;93559.44;5089344;28;20023;-55
2021/07/14 05:39:31;;;;;;;22.48;20.20;;;;;;;19.76;71.02;93559.09;5089298;28;20024;-55
2021/07/14 05:41:56;;;;;;;21.67;19.63;;;;;;;19.78;70.47;93553.63;5089478;28;20054;-54
2021/07/14 05:44:21;;;;;;;21.10;19.25;;;;;;;19.91;69.27;93557.91;5089619;28;20485;-56
2021/07/14 05:46:47;;;;;;;18.85;17.08;;;;;;;20.02;67.81;93559.97;5089466;28;20554;-55
2021/07/14 05:49:13;;;;;;;20.85;18.90;;;;;;;20.06;68.50;93566.56;5089561;28;20024;-56
2021/07/14 05:51:38;;;;;;;21.08;18.48;;;;;;;20.18;68.16;93563.78;5089144;28;20063;-55
2021/07/14 05:54:05;;;;;;;21.45;19.23;;;;;;;20.22;68.31;93561.22;5089198;28;20081;-56
2021/07/14 05:56:31;;;;;;;20.27;18.05;;;;;;;20.34;69.36;93554.28;5089486;28;20036;-55
2021/07/14 05:58:56;;;;;;;20.95;18.90;;;;;;;20.42;68.87;93556.09;5089439;28;20053;-56
2021/07/14 06:01:22;;;;;;;20.80;17.58;;;;;;;20.53;67.91;93555.34;5089173;28;20553;-51
2021/07/14 06:03:48;;;;;;;55.83;20.42;;;;;;;20.62;68.18;93560.81;5089269;28;20048;-54
2021/07/14 06:06:15;;;;;;;20.30;17.45;;;;;;;20.79;66.27;93556.91;5089403;28;20081;-54
2021/07/14 06:08:40;;;;;;;18.27;16.58;;;;;;;20.75;66.18;93537.00;5089448;28;20114;-53
2021/07/14 06:11:06;;;;;;;17.80;16.20;;;;;;;20.96;66.00;93545.25;5092583;28;20027;-56
2021/07/14 06:13:32;;;;;;;18.83;16.92;;;;;;;21.03;67.05;93559.03;5093082;28;20098;-55
2021/07/14 06:15:57;;;;;;;18.20;16.42;;;;;;;21.13;67.34;93550.47;5093282;28;20043;-58
2021/07/14 06:18:22;;;;;;;18.77;16.92;;;;;;;21.20;66.97;93557.16;5092945;28;20027;-56
2021/07/14 06:20:48;;;;;;;18.50;16.77;;;;;;;21.29;67.56;93556.28;5092317;28;20130;-57
2021/07/14 06:23:14;;;;;;;21.45;19.38;;;;;;;21.46;67.72;93555.81;5091684;28;20059;-57
2021/07/14 06:25:39;;;;;;;18.25;16.70;;;;;;;21.58;67.96;93545.97;5092087;28;20028;-57
2021/07/14 06:28:05;;;;;;;18.85;17.08;;;;;;;21.68;67.99;93557.03;5092603;28;20751;-56
2021/07/14 06:30:31;;;;;;;19.13;17.17;;;;;;;21.83;67.44;93557.19;5092971;28;20023;-57
2021/07/14 06:32:58;;;;;;;18.83;16.75;;;;;;;21.96;67.20;93538.91;5092343;28;20484;-57
2021/07/14 06:35:23;;;;;;;19.85;17.40;;;;;;;22.01;66.79;93532.16;5092514;28;20031;-56
2021/07/14 06:37:50;;;;;;;19.45;17.38;;;;;;;22.17;67.21;93535.81;5092762;28;20028;-57
2021/07/14 06:40:17;;;;;;;18.45;16.60;;;;;;;22.30;67.94;93537.91;5092413;28;20077;-57
2021/07/14 06:42:42;;;;;;;18.10;16.52;;;;;;;22.41;67.42;93534.28;5092616;28;20032;-57
2021/07/14 06:45:10;;;;;;;17.75;16.02;;;;;;;22.63;65.74;93536.78;5092657;28;20031;-57
2021/07/14 06:47:36;;;;;;;19.30;15.18;;;;;;;22.83;64.39;93544.16;5092060;28;20036;-58
2021/07/14 06:50:03;;;;;;;22.63;13.82;;;;;;;23.15;61.19;93542.22;5092241;28;20077;-55
2021/07/14 06:52:29;;;;;;;22.63;13.70;;;;;;;23.31;59.88;93540.19;5092477;28;20080;-54
2021/07/14 06:54:54;;;;;;;14.20;12.13;;;;;;;23.63;57.62;93541.75;5092236;28;20024;-53
2021/07/14 06:57:20;;;;;;;14.13;12.70;;;;;;;23.84;56.00;93544.16;5092164;28;20086;-56
2021/07/14 06:59:45;;;;;;;13.30;12.20;;;;;;;24.06;54.67;93542.38;5092502;28;20094;-56
2021/07/14 07:02:11;;;;;;;17.55;11.35;;;;;;;24.26;54.40;93539.75;5092310;28;20027;-52
2021/07/14 07:04:36;;;;;;;11.77;10.80;;;;;;;24.37;54.25;93547.28;5092021;28;20024;-54
2021/07/14 07:07:02;;;;;;;13.00;11.80;;;;;;;24.47;54.39;93536.44;5092179;28;20024;-54
2021/07/14 07:09:27;;;;;;;11.88;10.77;;;;;;;24.66;53.54;93547.19;5092038;28;20090;-55
2021/07/14 07:11:53;;;;;;;11.93;10.77;;;;;;;24.74;53.53;93535.50;5092058;28;20056;-51
2021/07/14 07:14:19;;;;;;;14.55;13.13;;;;;;;24.79;55.84;93534.34;5091794;28;20148;-50
2021/07/14 07:16:45;;;;;;;12.30;11.23;;;;;;;24.78;55.08;93518.75;5091598;28;20520;-50
2021/07/14 07:19:10;;;;;;;11.10;10.10;;;;;;;25.04;53.29;93530.41;5091759;28;20100;-53
2021/07/14 07:21:36;;;;;;;12.35;11.18;;;;;;;25.15;52.79;93535.84;5091270;28;20142;-54
2021/07/14 07:24:02;;;;;;;12.05;10.98;;;;;;;25.30;53.25;93540.72;5091389;28;20115;-50
2021/07/14 07:26:27;;;;;;;10.55;9.65;;;;;;;25.45;51.61;93530.72;5091642;28;20035;-54
2021/07/14 07:29:03;;;;;;;10.75;9.75;;;;;;;25.55;51.74;93533.97;5091439;28;20016;-54
2021/07/14 07:31:30;;;;;;;11.25;10.25;;;;;;;25.68;53.75;93535.19;5091337;28;20186;-54
2021/07/14 07:33:56;;;;;;;11.93;10.15;;;;;;;25.91;49.90;93538.22;5091318;28;20493;-55
2021/07/14 07:36:21;;;;;;;12.02;10.85;;;;;;;26.07;49.32;93540.94;5091516;28;20034;-51
2021/07/14 07:38:46;;;;;;;12.80;11.65;;;;;;;26.24;49.88;93543.03;5091549;28;20095;-54
2021/07/14 07:41:13;;;;;;;10.63;9.63;;;;;;;26.54;48.60;93540.59;5091433;28;20401;-55
2021/07/14 07:43:38;;;;;;;12.23;9.82;;;;;;;26.81;47.90;93543.03;5091319;28;20028;-51
2021/07/14 07:46:04;;;;;;;11.23;10.15;;;;;;;27.14;46.27;93542.75;5091076;28;20043;-54
2021/07/14 07:48:30;;;;;;;10.48;9.45;;;;;;;27.39;45.38;93538.66;5091001;28;20028;-55
2021/07/14 07:50:56;;;;;;;10.85;9.85;;;;;;;27.74;45.07;93533.41;5091251;28;20028;-55
2021/07/14 07:53:22;;;;;;;10.43;9.32;;;;;;;28.05;44.96;93537.22;5090965;28;20405;-55
2021/07/14 07:55:49;;;;;;;9.30;8.50;;;;;;;28.38;41.30;93529.00;5091183;28;20030;-55
2021/07/14 07:58:15;;;;;;;9.57;8.45;;;;;;;28.64;41.29;93534.72;5091197;28;20024;-50
2021/07/14 08:00:41;;;;;;;9.07;8.27;;;;;;;28.95;40.19;93524.94;5091088;28;20409;-54
2021/07/14 08:03:07;;;;;;;11.00;9.82;;;;;;;29.03;39.71;93542.19;5090715;28;20551;-56
2021/07/14 08:05:33;;;;;;;24.75;10.45;;;;;;;29.42;41.69;93535.41;5091079;28;20107;-55
2021/07/14 08:07:58;;;;;;;10.63;8.75;;;;;;;29.64;37.49;93527.44;5090528;28;20024;-53
2021/07/14 08:10:24;;;;;;;9.57;8.57;;;;;;;29.89;37.39;93527.34;5088945;28;20016;-53
2021/07/14 08:12:49;;;;;;;8.68;7.97;;;;;;;30.13;37.39;93523.59;5086103;28;20023;-52
2021/07/14 08:15:16;;;;;;;9.90;8.93;;;;;;;30.26;38.18;93514.66;5088359;28;20420;-51
2021/07/14 08:17:41;;;;;;;13.52;8.30;;;;;;;30.81;36.14;93527.94;5088957;28;20470;-56
2021/07/14 08:20:09;;;;;;;8.50;7.70;;;;;;;31.13;33.53;93525.72;5087251;28;20081;-54
2021/07/14 08:22:34;;;;;;;8.82;7.38;;;;;;;31.38;33.13;93524.75;5087471;28;20417;-54
2021/07/14 08:25:01;;;;;;;8.80;7.90;;;;;;;31.74;33.41;93521.09;5087954;28;20323;-54
2021/07/14 08:27:26;;;;;;;10.30;7.28;;;;;;;32.20;33.05;93507.56;5087532;28;20020;-54
2021/07/14 08:29:58;;;;;;;7.32;6.68;;;;;;;32.47;30.55;93512.22;5086725;28;20417;-52
2021/07/14 08:32:24;;;;;;;8.18;7.38;;;;;;;32.61;31.34;93521.00;5086018;28;20019;-52
2021/07/14 08:34:49;;;;;;;8.40;7.60;;;;;;;32.59;31.25;93523.09;5088400;28;20028;-52
2021/07/14 08:37:14;;;;;;;7.47;6.78;;;;;;;32.41;29.60;93509.28;5087784;28;20024;-50
2021/07/14 08:39:40;;;;;;;11.07;6.97;;;;;;;32.77;30.23;93512.59;5086141;28;20028;-46
2021/07/14 08:42:06;;;;;;;8.13;7.43;;;;;;;33.15;29.76;93518.09;5088290;28;20032;-52
2021/07/14 08:44:34;;;;;;;10.18;7.68;;;;;;;33.46;29.00;93511.22;5085304;28;20024;-49
2021/07/14 08:47:00;;;;;;;10.65;7.45;;;;;;;34.05;29.08;93509.63;5087806;28;20020;-54
2021/07/14 08:49:25;;;;;;;7.80;7.18;;;;;;;33.49;28.79;93503.38;5087488;28;20031;-51
2021/07/14 08:51:51;;;;;;;10.00;7.53;;;;;;;33.71;29.09;93512.19;5088711;28;20076;-51
2021/07/14 08:54:17;;;;;;;8.48;7.72;;;;;;;33.91;29.32;93514.50;5090134;28;20485;-51
2021/07/14 08:56:42;;;;;;;8.07;6.93;;;;;;;34.20;27.71;93513.28;5090469;28;20028;-46
2021/07/14 08:59:09;;;;;;;9.63;7.28;;;;;;;34.11;28.74;93509.66;5090350;28;20435;-50
2021/07/14 09:01:34;;;;;;;10.43;7.40;;;;;;;33.94;27.99;93504.50;5090336;28;20087;-47
2021/07/14 09:04:03;;;;;;;8.63;7.35;;;;;;;33.71;27.75;93506.47;5089729;28;20540;-50
2021/07/14 09:06:29;;;;;;;7.53;6.93;;;;;;;33.28;28.03;93507.47;5087893;28;20054;-52
2021/07/14 09:08:55;;;;;;;8.40;7.55;;;;;;;33.00;29.08;93512.91;5089762;28;20035;-48
2021/07/14 09:11:20;;;;;;;8.90;7.28;;;;;;;33.14;29.58;93507.31;5089567;28;20031;-51
2021/07/14 09:13:47;;;;;;;7.97;7.20;;;;;;;32.54;29.35;93508.03;5089652;28;20028;-53
2021/07/14 09:16:32;;;;;;;8.05;7.15;;;;;;;32.45;29.50;93500.00;5089006;28;20549;-49
2021/07/14 09:19:14;;;;;;;12.32;7.72;;;;;;;32.66;31.74;93508.19;5089854;28;20039;-49
2021/07/14 09:21:43;;;;;;;8.65;7.70;;;;;;;33.10;30.61;93505.16;5089209;28;20537;-52
2021/07/14 09:24:41;;;;;;;8.40;7.03;;;;;;;32.82;28.27;93510.53;5089406;28;20028;-54
2021/07/14 09:27:16;;;;;;;8.00;7.13;;;;;;;32.97;28.90;93509.25;5055409;28;20062;-50
2021/07/14 09:29:41;;;;;;;11.63;8.05;;;;;;;32.75;28.85;93506.88;5089479;28;20036;-55
2021/07/14 09:32:08;;;;;;;8.35;7.53;;;;;;;32.67;28.71;93511.75;5087221;28;20035;-51
2021/07/14 09:34:34;;;;;;;8.73;7.05;;;;;;;32.46;29.90;93501.47;5087488;28;20081;-49
2021/07/14 09:37:03;;;;;;;8.00;7.20;;;;;;;32.80;28.82;93508.38;5089267;28;20028;-46
2021/07/14 09:39:39;;;;;;;8.00;7.20;;;;;;;32.98;27.45;93505.00;5088630;28;20055;-54
2021/07/14 09:42:11;;;;;;;8.25;6.88;;;;;;;32.85;29.19;93509.13;5089557;28;20200;-48
2021/07/14 09:44:46;;;;;;;8.00;6.95;;;;;;;33.37;29.31;93503.28;5091277;28;20027;-51
2021/07/14 09:47:14;;;;;;;7.47;6.88;;;;;;;33.60;27.59;93507.81;5093424;28;20408;-51
2021/07/14 09:49:39;;;;;;;8.27;7.45;;;;;;;33.91;27.88;93512.38;5093612;28;20052;-51
2021/07/14 09:52:10;;;;;;;6.82;6.18;;;;;;;34.08;25.54;93513.94;5093460;28;20506;-52
2021/07/14 09:54:36;;;;;;;8.40;6.70;;;;;;;34.39;26.38;93514.13;5091665;28;20645;-49
2021/07/14 09:57:18;;;;;;;12.10;6.95;;;;;;;34.99;27.13;93509.47;5091877;28;20065;-54
2021/07/14 09:59:44;;;;;;;8.40;6.15;;;;;;;35.62;24.79;93509.63;5091531;28;20024;-49
2021/07/14 10:02:12;;;;;;;7.25;6.60;;;;;;;35.79;23.26;93500.28;5090436;28;20081;-54
2021/07/14 10:04:37;;;;;;;7.78;7.03;;;;;;;34.77;24.30;93505.75;5091750;28;20047;-54
2021/07/14 10:07:30;;;;;;;7.75;6.40;;;;;;;34.93;24.32;93506.50;5091335;28;20489;-52
2021/07/14 10:09:57;;;;;;;6.82;5.95;;;;;;;35.36;24.73;93501.66;5092676;28;20417;-52
2021/07/14 10:12:31;;;;;;;7.95;6.68;;;;;;;35.02;24.51;93495.84;5092802;28;20107;-58
2021/07/14 10:14:59;;;;;;;7.07;6.43;;;;;;;35.05;26.21;93505.88;5093204;28;20093;-50
2021/07/14 10:17:37;;;;;;;9.18;6.50;;;;;;;35.17;26.22;93485.84;5091625;28;20032;-51
2021/07/14 10:20:20;;;;;;;9.52;6.68;;;;;;;35.39;25.38;93493.78;5087266;28;20090;-50
2021/07/14 10:22:47;;;;;;;7.18;6.47;;;;;;;35.77;24.58;93488.81;5070192;28;20048;-52
2021/07/14 10:25:12;;;;;;;7.00;5.88;;;;;;;35.27;23.59;93490.84;5070485;28;20063;-50
2021/07/14 10:27:38;;;;;;;6.65;5.95;;;;;;;35.06;23.40;93479.31;5085981;28;20072;-56
2021/07/14 10:30:04;;;;;;;7.28;6.60;;;;;;;35.12;23.94;93475.03;5084830;28;20078;-50
2021/07/14 10:32:29;;;;;;;9.80;7.28;;;;;;;35.02;23.80;93484.38;5088635;28;20424;-53
2021/07/14 10:34:55;;;;;;;7.70;7.05;;;;;;;35.12;24.06;93484.38;5090260;28;20035;-50
2021/07/14 10:37:21;;;;;;;7.90;7.30;;;;;;;35.04;24.71;93482.19;5089239;28;20123;-54
2021/07/14 10:39:47;;;;;;;8.35;7.60;;;;;;;35.71;24.52;93479.47;5088905;28;20043;-55
2021/07/14 10:42:12;;;;;;;8.18;7.40;;;;;;;36.23;24.06;93479.44;5089074;28;20049;-52
2021/07/14 10:44:38;;;;;;;7.85;7.15;;;;;;;36.22;21.46;93477.28;5089054;28;20024;-54
2021/07/14 10:47:03;;;;;;;8.98;7.13;;;;;;;36.31;23.91;93473.66;5090533;28;20028;-56
2021/07/14 10:49:29;;;;;;;7.85;7.15;;;;;;;36.67;22.40;93475.72;5090508;28;20036;-58
2021/07/14 10:51:55;;;;;;;8.02;7.38;;;;;;;36.89;23.07;93467.03;5090266;28;20064;-58
2021/07/14 10:54:23;;;;;;;8.68;6.18;;;;;;;37.73;22.66;93474.47;5089222;28;20520;-62
2021/07/14 10:56:49;;;;;;;9.07;6.63;;;;;;;38.09;21.17;93473.47;5089806;28;20133;-61
2021/07/14 10:59:15;;;;;;;8.05;6.32;;;;;;;37.69;21.20;93473.78;5088711;28;20039;-60
2021/07/14 11:01:48;;;;;;;14.50;6.45;;;;;;;37.99;21.56;93464.19;5089797;28;20028;-61
2021/07/14 11:04:26;;;;;;;7.38;6.78;;;;;;;37.93;21.64;93453.44;5089948;28;20036;-64
2021/07/14 11:07:03;;;;;;;7.00;6.30;;;;;;;37.34;21.38;93461.75;5090109;28;20028;-62
2021/07/14 11:09:41;;;;;;;8.85;6.55;;;;;;;37.01;22.62;93457.63;5090059;28;20032;-62
2021/07/14 11:12:13;;;;;;;9.45;7.53;;;;;;;37.73;23.38;93459.31;5090071;28;20040;-63
2021/07/14 11:14:47;;;;;;;8.10;6.95;;;;;;;37.36;22.93;93453.13;5089207;28;20028;-63
2021/07/14 11:17:12;;;;;;;18.73;7.00;;;;;;;38.00;22.84;93462.72;5089630;28;20523;-59
2021/07/14 11:19:49;;;;;;;7.63;6.95;;;;;;;37.84;22.55;93452.78;5089128;28;20028;-61
2021/07/14 11:22:34;;;;;;;8.57;7.72;;;;;;;38.13;21.99;93450.38;5089021;28;20494;-63
2021/07/14 11:25:00;;;;;;;9.50;7.25;;;;;;;38.54;22.07;93451.41;5088654;28;20127;-62
2021/07/14 11:27:25;;;;;;;8.32;7.53;;;;;;;38.86;21.86;93449.59;5090749;28;20548;-61
2021/07/14 11:29:55;;;;;;;7.45;6.85;;;;;;;38.79;19.96;93443.16;5091194;28;20039;-65
2021/07/14 11:32:33;;;;;;;7.45;6.80;;;;;;;38.73;21.61;93442.53;5086473;28;20508;-60
2021/07/14 11:35:00;;;;;;;10.15;7.35;;;;;;;38.46;20.73;93442.13;5091629;28;20101;-64
2021/07/14 11:37:33;;;;;;;10.18;7.03;;;;;;;38.24;22.61;93440.16;5091555;28;20028;-62
2021/07/14 11:40:17;;;;;;;8.82;7.28;;;;;;;38.06;21.40;93439.59;5091482;28;20112;-67
2021/07/14 11:42:47;;;;;;;11.18;7.15;;;;;;;37.93;22.13;93439.72;5070840;28;20482;-64
2021/07/14 11:45:13;;;;;;;15.15;7.38;;;;;;;38.14;23.75;93440.25;5079527;28;20120;-64
2021/07/14 11:47:38;;;;;;;8.65;7.78;;;;;;;37.80;22.03;93440.56;5069879;28;20115;-60
2021/07/14 11:50:05;;;;;;;8.13;7.32;;;;;;;37.41;22.89;93440.13;5074256;28;20024;-61
2021/07/14 11:52:45;;;;;;;8.30;7.53;;;;;;;37.00;23.34;93433.88;5090197;28;20024;-62
2021/07/14 11:55:39;;;;;;;8.18;7.47;;;;;;;36.49;22.32;93433.38;5090663;28;20051;-61
2021/07/14 11:58:05;;;;;;;9.45;7.93;;;;;;;35.72;23.96;93429.16;5052755;28;20469;-64
2021/07/14 12:00:34;;;;;;;9.07;8.25;;;;;;;35.44;24.48;93432.75;5089979;28;20020;-62
2021/07/14 12:03:01;;;;;;;8.90;8.20;;;;;;;35.34;25.62;93435.63;5089878;28;20527;-63
2021/07/14 12:05:34;;;;;;;9.45;8.65;;;;;;;35.48;24.99;93429.19;5090202;28;20111;-61
2021/07/14 12:08:13;;;;;;;11.00;8.05;;;;;;;35.47;25.52;93437.06;5089334;28;20028;-62
2021/07/14 12:10:40;;;;;;;9.52;8.55;;;;;;;35.46;25.83;93438.50;5089871;28;20032;-59
2021/07/14 12:13:06;;;;;;;9.77;8.98;;;;;;;35.69;27.01;93433.50;5090566;28;20023;-62
2021/07/14 12:15:44;;;;;;;10.68;9.73;;;;;;;35.89;27.05;93424.84;5090660;28;20035;-61
2021/07/14 12:18:09;;;;;;;9.50;8.65;;;;;;;36.07;26.14;93424.84;5090688;28;20218;-63
2021/07/14 12:20:35;;;;;;;9.82;8.27;;;;;;;36.03;26.25;93424.13;5090217;28;20039;-62
2021/07/14 12:23:01;;;;;;;9.88;8.93;;;;;;;36.10;26.30;93422.69;5090560;28;20077;-63
2021/07/14 12:25:26;;;;;;;10.27;9.27;;;;;;;36.16;26.30;93420.53;5090626;28;20062;-59
2021/07/14 12:27:52;;;;;;;9.68;8.40;;;;;;;36.19;24.63;93424.81;5089858;28;20106;-59
2021/07/14 12:30:22;;;;;;;10.38;8.75;;;;;;;36.16;25.49;93417.66;5089947;28;20020;-63
2021/07/14 12:32:51;;;;;;;16.42;9.20;;;;;;;36.04;26.23;93414.78;5087411;28;20032;-62
2021/07/14 12:35:23;;;;;;;16.63;9.50;;;;;;;35.94;25.93;93411.91;5086360;28;20046;-62
2021/07/14 12:37:54;;;;;;;9.27;8.40;;;;;;;35.77;25.80;93410.50;5089444;28;20409;-62
2021/07/14 12:40:47;;;;;;;9.77;8.80;;;;;;;35.66;26.96;93412.66;5086701;28;20739;-60
2021/07/14 12:43:15;;;;;;;9.68;8.57;;;;;;;35.38;25.28;93409.06;5088525;28;20024;-61
2021/07/14 12:45:43;;;;;;;8.85;8.05;;;;;;;35.10;27.25;93400.41;5088097;28;20028;-62
2021/07/14 12:48:18;;;;;;;9.50;8.15;;;;;;;34.98;27.49;93403.94;5088756;28;20725;-64
2021/07/14 12:50:46;;;;;;;10.20;8.55;;;;;;;34.80;27.10;93404.66;5087433;28;20028;-61
2021/07/14 12:53:12;;;;;;;9.30;8.50;;;;;;;34.56;27.00;93398.84;5088442;28;20463;-60
2021/07/14 12:55:38;;;;;;;9.40;8.48;;;;;;;34.25;26.70;93392.25;5089042;28;20028;-60
2021/07/14 12:58:09;;;;;;;9.68;8.88;;;;;;;34.19;26.74;93397.94;5086178;28;20404;-59
2021/07/14 13:00:42;;;;;;;9.60;8.70;;;;;;;33.98;26.91;93398.53;5088879;28;20036;-63
2021/07/14 13:03:10;;;;;;;10.10;8.18;;;;;;;33.77;27.76;93391.94;5089713;28;20035;-62
2021/07/14 13:05:40;;;;;;;9.07;8.27;;;;;;;33.55;28.86;93397.53;5088626;28;20028;-61
2021/07/14 13:08:08;;;;;;;8.82;7.93;;;;;;;33.56;28.25;93398.97;5075274;28;20040;-61
2021/07/14 13:10:34;;;;;;;9.38;8.32;;;;;;;33.60;29.14;93396.84;5067465;28;20028;-61
2021/07/14 13:13:00;;;;;;;9.73;8.60;;;;;;;33.57;29.14;93389.66;5067837;28;20028;-60
2021/07/14 13:15:27;;;;;;;9.10;8.20;;;;;;;33.63;29.67;93392.56;5086479;28;20032;-60
2021/07/14 13:18:13;;;;;;;8.47;7.77;;;;;;;33.67;28.88;93396.91;5088019;28;20445;-59
2021/07/14 13:20:42;;;;;;;8.70;7.68;;;;;;;33.63;29.25;93389.00;5086199;28;20118;-58
2021/07/14 13:23:10;;;;;;;9.90;8.25;;;;;;;33.63;28.93;93386.84;5087229;28;20485;-60
2021/07/14 13:25:50;;;;;;;8.93;8.13;;;;;;;33.67;30.03;93380.44;5087500;28;20028;-60
2021/07/14 13:28:23;;;;;;;8.45;7.72;;;;;;;33.69;29.86;93380.44;5085016;28;20038;-60
2021/07/14 13:31:02;;;;;;;9.20;8.32;;;;;;;33.72;28.99;93387.63;5066675;28;20101;-59
2021/07/14 13:33:44;;;;;;;8.60;7.75;;;;;;;33.60;28.61;93381.81;5107823;28;20112;-59
2021/07/14 13:36:14;;;;;;;9.07;8.27;;;;;;;33.52;28.78;93378.91;5106439;28;20091;-60
2021/07/14 13:38:49;;;;;;;12.35;8.85;;;;;;;33.22;28.93;93375.78;5107861;28;20043;-60